createdAt,value
2023-05-06T00:00:31.551Z,11.40
2023-05-06T00:03:00.139Z,11.00
2023-05-06T00:05:29.886Z,10.57
2023-05-06T00:07:57.603Z,10.03
2023-05-06T00:10:26.004Z,11.27
2023-05-06T00:12:53.840Z,11.67
2023-05-06T00:15:21.656Z,13.40
2023-05-06T00:17:49.470Z,13.47
2023-05-06T00:20:17.653Z,13.97
2023-05-06T00:22:46.813Z,14.53
2023-05-06T00:25:14.749Z,15.33
2023-05-06T00:27:42.532Z,16.37
2023-05-06T00:30:11.818Z,18.80
2023-05-06T00:32:39.726Z,19.20
2023-05-06T00:35:09.059Z,18.27
2023-05-06T00:37:37.004Z,18.53
2023-05-06T00:40:07.527Z,18.70
2023-05-06T00:42:35.510Z,17.00
2023-05-06T00:45:04.113Z,17.00
2023-05-06T00:47:32.308Z,16.93
2023-05-06T00:50:00.190Z,17.03
2023-05-06T00:52:28.305Z,16.17
2023-05-06T00:54:56.555Z,17.40
2023-05-06T00:57:26.030Z,17.10
2023-05-06T00:59:55.222Z,16.43
2023-05-06T01:02:24.651Z,16.00
2023-05-06T01:04:56.531Z,16.63
2023-05-06T01:07:31.610Z,15.77
2023-05-06T01:10:09.030Z,16.87
2023-05-06T01:12:45.041Z,15.90
2023-05-06T01:15:18.351Z,14.47
2023-05-06T01:17:47.211Z,14.23
2023-05-06T01:20:15.371Z,15.23
2023-05-06T01:22:43.318Z,15.83
2023-05-06T01:25:20.564Z,15.80
2023-05-06T01:27:48.364Z,14.87
2023-05-06T01:30:18.352Z,15.47
2023-05-06T01:32:54.154Z,14.50
2023-05-06T01:35:28.321Z,14.80
2023-05-06T01:38:04.896Z,14.20
2023-05-06T01:40:36.433Z,14.87
2023-05-06T01:43:06.898Z,13.17
2023-05-06T01:45:37.359Z,12.93
2023-05-06T01:48:06.795Z,11.87
2023-05-06T01:50:35.923Z,12.67
2023-05-06T01:53:04.439Z,11.63
2023-05-06T01:55:32.211Z,11.03
2023-05-06T01:58:01.535Z,11.23
2023-05-06T02:00:29.407Z,11.40
2023-05-06T02:02:57.406Z,11.23
2023-05-06T02:05:25.349Z,11.73
2023-05-06T02:07:53.084Z,11.40
2023-05-06T02:10:20.917Z,11.93
2023-05-06T02:12:49.380Z,11.60
2023-05-06T02:15:18.663Z,10.53
2023-05-06T02:17:46.435Z,11.33
2023-05-06T02:20:14.318Z,11.33
2023-05-06T02:22:42.043Z,10.73
2023-05-06T02:25:10.839Z,10.60
2023-05-06T02:27:38.802Z,9.87
2023-05-06T02:30:07.742Z,9.63
2023-05-06T02:32:37.298Z,8.73
2023-05-06T02:35:05.831Z,9.53
2023-05-06T02:37:33.588Z,8.70
2023-05-06T02:40:01.381Z,9.03
2023-05-06T02:42:29.380Z,9.33
2023-05-06T02:44:57.274Z,9.30
2023-05-06T02:47:25.243Z,9.20
2023-05-06T02:49:54.478Z,9.03
2023-05-06T02:52:22.175Z,8.50
2023-05-06T02:54:49.958Z,8.57
2023-05-06T02:57:17.918Z,8.83
2023-05-06T02:59:45.717Z,9.83
2023-05-06T03:02:13.424Z,10.30
2023-05-06T03:04:41.732Z,9.80
2023-05-06T03:07:11.067Z,9.97
2023-05-06T03:09:39.414Z,9.40
2023-05-06T03:12:07.701Z,9.17
2023-05-06T03:14:35.638Z,8.63
2023-05-06T03:17:03.567Z,8.43
2023-05-06T03:19:31.555Z,8.87
2023-05-06T03:21:59.436Z,8.77
2023-05-06T03:24:28.720Z,8.77
2023-05-06T03:26:58.638Z,8.73
2023-05-06T03:29:26.724Z,8.03
2023-05-06T03:31:57.088Z,8.63
2023-05-06T03:34:24.895Z,8.93
2023-05-06T03:36:52.600Z,8.57
2023-05-06T03:39:20.463Z,7.90
2023-05-06T03:41:49.786Z,8.90
2023-05-06T03:44:17.670Z,8.33
2023-05-06T03:46:45.592Z,7.77
2023-05-06T03:49:13.445Z,8.40
2023-05-06T03:51:41.360Z,8.80
2023-05-06T03:54:09.277Z,8.13
2023-05-06T03:56:37.287Z,9.00
2023-05-06T03:59:06.581Z,9.43
2023-05-06T04:01:35.258Z,9.33
2023-05-06T04:04:03.301Z,9.57
2023-05-06T04:06:31.602Z,9.03
2023-05-06T04:08:59.410Z,9.63
2023-05-06T04:11:29.574Z,9.73
2023-05-06T04:13:57.700Z,9.33
2023-05-06T04:16:27.023Z,9.93
2023-05-06T04:18:55.377Z,10.23
2023-05-06T04:21:23.211Z,10.47
2023-05-06T04:23:51.049Z,10.13
2023-05-06T04:26:18.940Z,11.37
2023-05-06T04:28:46.760Z,11.20
2023-05-06T04:31:15.620Z,10.23
2023-05-06T04:33:45.104Z,10.07
2023-05-06T04:36:13.120Z,10.67
2023-05-06T04:38:41.842Z,10.43
2023-05-06T04:41:09.868Z,12.40
2023-05-06T04:43:37.754Z,11.23
2023-05-06T04:46:06.022Z,12.17
2023-05-06T04:48:34.968Z,11.70
2023-05-06T04:51:05.432Z,11.37
2023-05-06T04:53:33.467Z,11.20
2023-05-06T04:56:01.294Z,11.53
2023-05-06T04:58:29.042Z,12.07
2023-05-06T05:00:57.391Z,11.10
2023-05-06T05:03:25.685Z,11.37
2023-05-06T05:05:53.752Z,10.93
2023-05-06T05:08:23.130Z,11.10
2023-05-06T05:10:50.997Z,11.20
2023-05-06T05:13:18.935Z,10.63
2023-05-06T05:15:47.003Z,9.83
2023-05-06T05:18:14.994Z,9.50
2023-05-06T05:20:42.871Z,11.10
2023-05-06T05:23:10.705Z,10.23
2023-05-06T05:25:40.221Z,11.13
2023-05-06T05:28:08.083Z,11.23
2023-05-06T05:30:36.079Z,12.17
2023-05-06T05:33:03.982Z,11.60
2023-05-06T05:35:32.250Z,12.17
2023-05-06T05:37:59.960Z,12.00
2023-05-06T05:40:28.096Z,12.03
2023-05-06T05:42:57.254Z,11.00
2023-05-06T05:45:24.988Z,12.03
2023-05-06T05:47:53.815Z,11.77
2023-05-06T05:50:21.895Z,11.53
2023-05-06T05:52:49.699Z,11.20
2023-05-06T05:55:17.632Z,12.57
2023-05-06T05:57:45.428Z,12.00
2023-05-06T06:00:15.774Z,12.77
2023-05-06T06:02:43.737Z,14.67
2023-05-06T06:05:11.886Z,15.07
2023-05-06T06:07:40.815Z,15.13
2023-05-06T06:10:09.981Z,15.17
2023-05-06T06:12:37.953Z,16.80
2023-05-06T06:15:06.732Z,14.80
2023-05-06T06:17:36.417Z,15.33
2023-05-06T06:20:05.862Z,14.87
2023-05-06T06:22:33.839Z,14.17
2023-05-06T06:25:01.828Z,14.07
2023-05-06T06:27:29.807Z,13.83
2023-05-06T06:29:58.046Z,13.13
2023-05-06T06:32:26.641Z,14.07
2023-05-06T06:34:56.121Z,13.87
2023-05-06T06:37:24.023Z,14.53
2023-05-06T06:39:52.699Z,13.13
2023-05-06T06:42:21.040Z,13.33
2023-05-06T06:44:48.848Z,13.63
2023-05-06T06:47:16.574Z,12.80
2023-05-06T06:49:44.730Z,12.93
2023-05-06T06:52:13.865Z,14.13
2023-05-06T06:54:41.631Z,12.87
2023-05-06T06:57:09.361Z,13.63
2023-05-06T06:59:37.091Z,13.30
2023-05-06T07:02:05.689Z,13.77
2023-05-06T07:04:33.601Z,11.67
2023-05-06T07:07:01.352Z,12.93
2023-05-06T07:09:30.490Z,12.30
2023-05-06T07:11:58.634Z,12.77
2023-05-06T07:14:27.290Z,12.73
2023-05-06T07:16:55.081Z,13.30
2023-05-06T07:19:23.175Z,12.57
2023-05-06T07:21:51.044Z,12.37
2023-05-06T07:24:19.073Z,12.30
2023-05-06T07:26:48.315Z,12.73
2023-05-06T07:29:16.283Z,13.03
2023-05-06T07:31:44.215Z,13.20
2023-05-06T07:34:12.124Z,12.47
2023-05-06T07:36:43.134Z,12.93
2023-05-06T07:39:11.457Z,12.33
2023-05-06T07:41:39.309Z,12.90
2023-05-06T07:44:08.436Z,12.20
2023-05-06T07:46:36.434Z,12.77
2023-05-06T07:49:04.414Z,12.87
2023-05-06T07:51:33.023Z,11.93
2023-05-06T07:54:00.859Z,12.17
2023-05-06T07:56:28.616Z,11.73
2023-05-06T07:58:56.434Z,11.53
2023-05-06T08:01:25.654Z,10.70
2023-05-06T08:03:53.476Z,10.87
2023-05-06T08:06:21.695Z,10.27
2023-05-06T08:08:49.400Z,9.70
2023-05-06T08:11:19.148Z,8.77
2023-05-06T08:13:47.312Z,8.77
2023-05-06T08:16:15.182Z,8.20
2023-05-06T08:18:44.336Z,9.10
2023-05-06T08:21:12.068Z,8.57
2023-05-06T08:23:39.820Z,8.97
2023-05-06T08:26:07.703Z,8.07
2023-05-06T08:28:35.445Z,8.77
2023-05-06T08:31:03.233Z,8.37
2023-05-06T08:33:31.777Z,9.20
2023-05-06T08:36:01.260Z,8.60
2023-05-06T08:38:28.986Z,8.73
2023-05-06T08:41:00.918Z,7.77
2023-05-06T08:43:31.858Z,8.80
2023-05-06T08:45:59.754Z,8.17
2023-05-06T08:48:27.571Z,6.87
2023-05-06T08:50:56.587Z,8.47
2023-05-06T08:53:25.796Z,7.83
2023-05-06T08:55:55.281Z,8.17
2023-05-06T08:58:27.216Z,6.77
2023-05-06T09:00:55.251Z,6.87
2023-05-06T09:03:23.517Z,7.53
2023-05-06T09:05:51.331Z,7.80
2023-05-06T09:08:19.075Z,7.47
2023-05-06T09:10:48.411Z,8.33
2023-05-06T09:13:17.919Z,8.57
2023-05-06T09:15:48.044Z,8.17
2023-05-06T09:18:16.434Z,8.20
2023-05-06T09:20:46.115Z,7.50
2023-05-06T09:23:15.895Z,6.60
2023-05-06T09:25:44.403Z,7.00
2023-05-06T09:28:15.243Z,6.80
2023-05-06T09:30:44.373Z,6.43
2023-05-06T09:33:12.890Z,6.30
2023-05-06T09:35:42.386Z,5.60
2023-05-06T09:38:10.981Z,6.20
2023-05-06T09:40:40.038Z,6.13
2023-05-06T09:43:08.885Z,6.23
2023-05-06T09:45:38.300Z,5.90
2023-05-06T09:48:07.429Z,6.53
2023-05-06T09:50:35.329Z,7.63
2023-05-06T09:53:06.779Z,7.13
2023-05-06T09:55:34.684Z,7.17
2023-05-06T09:58:04.732Z,7.73
2023-05-06T10:00:32.996Z,7.77
2023-05-06T10:03:03.107Z,7.30
2023-05-06T10:05:32.881Z,7.50
2023-05-06T10:08:01.512Z,8.27
2023-05-06T10:10:32.114Z,8.63
2023-05-06T10:13:00.098Z,8.73
2023-05-06T10:15:28.113Z,8.53
2023-05-06T10:17:56.524Z,8.77
2023-05-06T10:20:28.051Z,9.00
2023-05-06T10:23:04.533Z,8.10
2023-05-06T10:25:38.172Z,8.47
2023-05-06T10:28:09.226Z,8.37
2023-05-06T10:30:46.055Z,8.17
2023-05-06T10:33:15.987Z,8.70
2023-05-06T10:35:50.747Z,9.20
2023-05-06T10:38:25.922Z,8.93
2023-05-06T10:40:54.118Z,7.97
2023-05-06T10:43:29.165Z,7.77
2023-05-06T10:46:04.951Z,8.00
2023-05-06T10:48:33.947Z,8.40
2023-05-06T10:51:27.607Z,8.10
2023-05-06T10:54:02.243Z,9.10
2023-05-06T10:56:31.397Z,7.57
2023-05-06T10:59:04.085Z,7.60
2023-05-06T11:01:32.259Z,7.37
2023-05-06T11:04:09.813Z,7.07
2023-05-06T11:06:42.226Z,7.70
2023-05-06T11:09:17.695Z,7.77
2023-05-06T11:11:51.084Z,7.53
2023-05-06T11:14:32.432Z,8.90
2023-05-06T11:17:01.792Z,7.73
2023-05-06T11:19:31.128Z,7.57
2023-05-06T11:22:02.636Z,7.60
2023-05-06T11:24:39.253Z,6.60
2023-05-06T11:27:07.128Z,6.50
2023-05-06T11:29:34.915Z,8.27
2023-05-06T11:32:02.762Z,8.33
2023-05-06T11:34:32.316Z,7.67
2023-05-06T11:37:06.148Z,7.53
2023-05-06T11:39:39.922Z,7.37
2023-05-06T11:42:09.579Z,6.37
2023-05-06T11:44:38.970Z,6.33
2023-05-06T11:47:07.919Z,6.40
2023-05-06T11:49:39.423Z,6.20
2023-05-06T11:52:09.332Z,6.03
2023-05-06T11:54:39.482Z,5.60
2023-05-06T11:57:07.375Z,5.90
2023-05-06T11:59:37.433Z,6.40
2023-05-06T12:02:06.664Z,6.57
2023-05-06T12:04:42.176Z,5.97
2023-05-06T12:07:12.681Z,5.97
2023-05-06T12:09:42.509Z,4.93
2023-05-06T12:12:11.261Z,5.27
2023-05-06T12:14:39.754Z,5.73
2023-05-06T12:17:08.061Z,5.13
2023-05-06T12:19:36.654Z,4.57
2023-05-06T12:22:19.075Z,5.43
2023-05-06T12:24:47.274Z,5.00
2023-05-06T12:27:15.248Z,4.60
2023-05-06T12:29:53.056Z,4.90
2023-05-06T12:32:20.849Z,4.68
2023-05-06T12:34:48.754Z,4.60
2023-05-06T12:37:28.065Z,4.60
2023-05-06T12:40:07.757Z,4.87
2023-05-06T12:42:35.807Z,4.70
2023-05-06T12:45:15.370Z,4.80
2023-05-06T12:47:53.848Z,4.90
2023-05-06T12:50:35.475Z,5.00
2023-05-06T12:53:06.790Z,5.17
2023-05-06T12:55:34.722Z,5.10
2023-05-06T12:58:02.748Z,4.72
2023-05-06T13:00:30.921Z,4.30
2023-05-06T13:02:58.717Z,3.70
2023-05-06T13:05:26.592Z,4.77
2023-05-06T13:07:54.356Z,3.88
2023-05-06T13:10:23.778Z,3.17
2023-05-06T13:12:51.545Z,3.37
2023-05-06T13:15:19.490Z,3.15
2023-05-06T13:17:47.404Z,2.77
2023-05-06T13:20:15.804Z,3.08
2023-05-06T13:22:53.185Z,3.30
2023-05-06T13:25:24.019Z,3.17
2023-05-06T13:27:51.817Z,3.40
2023-05-06T13:30:19.493Z,3.28
2023-05-06T13:32:48.109Z,2.97
2023-05-06T13:35:16.783Z,3.30
2023-05-06T13:37:44.459Z,2.97
2023-05-06T13:40:13.371Z,3.00
2023-05-06T13:42:42.553Z,3.10
2023-05-06T13:45:11.376Z,3.40
2023-05-06T13:47:39.148Z,3.10
2023-05-06T13:50:08.226Z,3.35
2023-05-06T13:52:36.786Z,3.33
2023-05-06T13:55:04.819Z,3.20
2023-05-06T13:57:32.531Z,2.97
2023-05-06T14:00:01.611Z,3.63
2023-05-06T14:02:29.757Z,3.20
2023-05-06T14:04:57.682Z,4.40
2023-05-06T14:07:25.501Z,3.55
2023-05-06T14:09:53.561Z,3.35
2023-05-06T14:12:22.864Z,3.58
2023-05-06T14:14:50.850Z,3.20
2023-05-06T14:17:20.174Z,3.00
2023-05-06T14:19:47.952Z,3.10
2023-05-06T14:22:15.779Z,3.22
2023-05-06T14:24:43.726Z,3.17
2023-05-06T14:27:11.493Z,2.65
2023-05-06T14:29:39.198Z,2.58
2023-05-06T14:32:07.041Z,3.00
2023-05-06T14:34:37.054Z,2.60
2023-05-06T14:37:04.810Z,2.78
2023-05-06T14:39:32.737Z,2.67
2023-05-06T14:42:00.481Z,2.90
2023-05-06T14:44:28.331Z,2.90
2023-05-06T14:46:56.097Z,2.20
2023-05-06T14:49:23.807Z,2.30
2023-05-06T14:51:52.931Z,2.90
2023-05-06T14:54:20.629Z,2.50
2023-05-06T14:56:49.384Z,2.43
2023-05-06T14:59:18.842Z,2.33
2023-05-06T15:01:46.625Z,2.20
2023-05-06T15:04:14.420Z,2.37
2023-05-06T15:06:42.111Z,2.60
2023-05-06T15:09:11.300Z,2.03
2023-05-06T15:11:39.029Z,1.90
2023-05-06T15:14:06.841Z,2.00
2023-05-06T15:16:34.656Z,2.60
2023-05-06T15:19:02.402Z,2.40
2023-05-06T15:21:30.128Z,2.50
2023-05-06T15:23:58.146Z,2.57
2023-05-06T15:26:27.796Z,2.67
2023-05-06T15:28:55.534Z,2.10
2023-05-06T15:31:23.310Z,2.40
2023-05-06T15:33:51.250Z,2.10
2023-05-06T15:36:18.977Z,2.33
2023-05-06T15:39:00.173Z,2.20
2023-05-06T15:41:32.453Z,1.93
2023-05-06T15:44:00.996Z,2.07
2023-05-06T15:46:29.853Z,2.17
2023-05-06T15:49:22.439Z,2.20
2023-05-06T15:51:45.748Z,2.10
2023-05-06T15:54:13.507Z,1.70
2023-05-06T15:56:42.660Z,2.03
2023-05-06T15:59:10.432Z,2.17
2023-05-06T16:04:09.201Z,2.10
2023-05-06T16:06:37.100Z,1.70
2023-05-06T16:09:05.055Z,2.10
2023-05-06T16:11:32.767Z,2.10
2023-05-06T16:14:01.927Z,1.97
2023-05-06T16:16:29.785Z,2.20
2023-05-06T16:18:57.501Z,2.30
2023-05-06T16:21:25.333Z,2.23
2023-05-06T16:23:53.215Z,3.10
2023-05-06T16:26:21.285Z,3.77
2023-05-06T16:28:49.096Z,3.50
2023-05-06T16:31:18.335Z,3.27
2023-05-06T16:33:46.154Z,4.20
2023-05-06T16:36:14.811Z,5.13
2023-05-06T16:38:42.589Z,5.70
2023-05-06T16:41:10.409Z,6.17
2023-05-06T16:43:38.128Z,6.40
2023-05-06T16:46:06.212Z,8.17
2023-05-06T16:48:35.380Z,7.80
2023-05-06T16:51:03.250Z,8.80
2023-05-06T16:53:30.983Z,8.70
2023-05-06T16:55:58.743Z,8.63
2023-05-06T16:58:26.553Z,7.73
2023-05-06T17:00:54.408Z,9.03
2023-05-06T17:03:22.910Z,7.57
2023-05-06T17:05:52.168Z,7.77
2023-05-06T17:08:19.930Z,10.23
2023-05-06T17:10:47.823Z,9.37
2023-05-06T17:13:15.605Z,9.33
2023-05-06T17:15:43.379Z,7.40
2023-05-06T17:18:11.109Z,9.50
2023-05-06T17:20:51.676Z,9.67
2023-05-06T17:23:25.036Z,10.37
2023-05-06T17:25:53.088Z,10.67
2023-05-06T17:28:20.910Z,8.93
2023-05-06T17:30:48.789Z,7.97
2023-05-06T17:33:16.825Z,9.33
2023-05-06T17:35:44.782Z,8.10
2023-05-06T17:38:13.405Z,9.20
2023-05-06T17:40:43.689Z,9.87
2023-05-06T17:43:11.501Z,9.50
2023-05-06T17:45:41.370Z,8.03
2023-05-06T17:48:09.178Z,8.70
2023-05-06T17:50:36.937Z,9.30
2023-05-06T17:53:04.647Z,8.50
2023-05-06T17:55:32.351Z,8.23
2023-05-06T17:58:01.521Z,9.30
2023-05-06T18:00:29.228Z,10.00
2023-05-06T18:02:57.687Z,9.13
2023-05-06T18:05:26.280Z,7.60
2023-05-06T18:07:54.335Z,7.77
2023-05-06T18:10:22.024Z,8.87
2023-05-06T18:12:49.938Z,8.97
2023-05-06T18:15:19.329Z,8.53
2023-05-06T18:17:47.424Z,8.27
2023-05-06T18:20:15.197Z,7.70
2023-05-06T18:22:43.926Z,8.83
2023-05-06T18:25:12.030Z,8.43
2023-05-06T18:27:39.913Z,8.20
2023-05-06T18:30:08.788Z,8.73
2023-05-06T18:32:38.056Z,8.83
2023-05-06T18:35:06.830Z,8.50
2023-05-06T18:37:34.761Z,7.97
2023-05-06T18:40:02.651Z,9.47
2023-05-06T18:42:30.501Z,9.00
2023-05-06T18:44:59.328Z,9.43
2023-05-06T18:47:27.234Z,9.23
2023-05-06T18:49:57.546Z,9.90
2023-05-06T18:52:26.037Z,9.27
2023-05-06T18:54:53.904Z,10.87
2023-05-06T18:57:21.709Z,9.90
2023-05-06T18:59:50.105Z,9.70
2023-05-06T19:02:18.012Z,10.27
2023-05-06T19:04:45.875Z,7.83
2023-05-06T19:07:16.245Z,10.13
2023-05-06T19:09:44.062Z,9.00
2023-05-06T19:12:12.002Z,10.67
2023-05-06T19:14:39.858Z,10.63
2023-05-06T19:17:07.735Z,12.27
2023-05-06T19:19:35.853Z,12.20
2023-05-06T19:22:04.431Z,12.30
2023-05-06T19:24:33.588Z,11.80
2023-05-06T19:27:01.899Z,10.60
2023-05-06T19:29:29.660Z,12.60
2023-05-06T19:31:57.458Z,13.03
2023-05-06T19:34:25.856Z,13.27
2023-05-06T19:36:53.733Z,14.20
2023-05-06T19:39:21.869Z,13.37
2023-05-06T19:41:52.028Z,13.83
2023-05-06T19:44:19.715Z,15.30
2023-05-06T19:46:47.475Z,14.43
2023-05-06T19:49:15.281Z,14.50
2023-05-06T19:51:43.018Z,13.87
2023-05-06T19:54:10.987Z,14.50
2023-05-06T19:56:38.973Z,15.67
2023-05-06T19:59:08.053Z,15.13
2023-05-06T20:01:36.397Z,13.40
2023-05-06T20:04:04.486Z,14.27
2023-05-06T20:06:33.034Z,16.97
2023-05-06T20:09:00.779Z,14.67
2023-05-06T20:11:28.695Z,13.30
2023-05-06T20:13:56.560Z,11.20
2023-05-06T20:16:25.779Z,14.43
2023-05-06T20:18:54.237Z,13.53
2023-05-06T20:21:22.074Z,15.13
2023-05-06T20:23:49.739Z,12.57
2023-05-06T20:26:17.482Z,13.93
2023-05-06T20:28:45.237Z,13.93
2023-05-06T20:31:13.105Z,13.50
2023-05-06T20:33:42.418Z,13.40
2023-05-06T20:36:10.160Z,13.40
2023-05-06T20:38:38.211Z,13.50
2023-05-06T20:41:05.953Z,9.77
2023-05-06T20:43:35.319Z,13.10
2023-05-06T20:46:03.214Z,9.03
2023-05-06T20:48:31.993Z,12.43
2023-05-06T20:51:01.386Z,12.73
2023-05-06T20:53:37.230Z,12.33
2023-05-06T20:56:05.068Z,10.50
2023-05-06T20:58:32.741Z,8.37
2023-05-06T21:01:00.547Z,12.07
2023-05-06T21:03:30.582Z,13.53
2023-05-06T21:05:58.465Z,10.87
2023-05-06T21:08:28.398Z,10.57
2023-05-06T21:10:56.609Z,11.83
2023-05-06T21:13:24.381Z,11.73
2023-05-06T21:15:52.404Z,8.50
2023-05-06T21:18:20.271Z,9.43
2023-05-06T21:20:48.591Z,10.03
2023-05-06T21:23:16.439Z,10.47
2023-05-06T21:25:49.185Z,11.33
2023-05-06T21:28:17.262Z,8.97
2023-05-06T21:30:47.095Z,9.57
2023-05-06T21:33:15.313Z,10.63
2023-05-06T21:35:45.015Z,10.60
2023-05-06T21:38:13.140Z,10.37
2023-05-06T21:40:46.410Z,7.57
2023-05-06T21:43:17.800Z,9.60
2023-05-06T21:45:45.712Z,9.37
2023-05-06T21:48:13.383Z,9.57
2023-05-06T21:50:41.074Z,9.47
2023-05-06T21:53:08.809Z,9.23
2023-05-06T21:55:37.013Z,8.37
2023-05-06T21:58:05.162Z,9.47
2023-05-06T22:00:34.343Z,9.43
2023-05-06T22:03:02.145Z,8.57
2023-05-06T22:05:29.970Z,8.97
2023-05-06T22:07:57.792Z,9.60
2023-05-06T22:10:26.345Z,10.13
2023-05-06T22:12:54.174Z,8.20
2023-05-06T22:15:21.886Z,9.07
2023-05-06T22:17:51.002Z,8.87
2023-05-06T22:20:19.121Z,10.00
2023-05-06T22:22:46.833Z,10.33
2023-05-06T22:25:14.516Z,9.93
2023-05-06T22:27:42.335Z,10.37
2023-05-06T22:30:11.585Z,9.77
2023-05-06T22:32:39.541Z,10.57
2023-05-06T22:35:09.848Z,9.70
2023-05-06T22:37:37.718Z,10.57
2023-05-06T22:40:07.110Z,12.30
2023-05-06T22:42:34.770Z,8.83
2023-05-06T22:45:02.713Z,11.37
2023-05-06T22:47:30.453Z,10.27
2023-05-06T22:49:58.193Z,14.83
2023-05-06T22:52:27.420Z,14.37
2023-05-06T22:54:55.256Z,12.53
2023-05-06T22:57:25.106Z,12.10
2023-05-06T22:59:52.888Z,11.87
2023-05-06T23:02:20.641Z,12.17
2023-05-06T23:04:48.527Z,13.00
2023-05-06T23:07:16.462Z,11.43
2023-05-06T23:09:45.553Z,11.67
2023-05-06T23:12:13.239Z,12.03
2023-05-06T23:14:40.958Z,11.97
2023-05-06T23:17:08.730Z,12.50
2023-05-06T23:19:36.564Z,15.53
2023-05-06T23:22:04.485Z,14.47
2023-05-06T23:24:32.193Z,13.27
2023-05-06T23:27:01.304Z,13.20
2023-05-06T23:29:29.094Z,14.13
2023-05-06T23:31:56.805Z,14.13
2023-05-06T23:34:24.913Z,14.30
2023-05-06T23:36:52.835Z,12.23
2023-05-06T23:39:20.562Z,14.47
2023-05-06T23:41:48.266Z,15.10
2023-05-06T23:44:17.350Z,10.10
2023-05-06T23:46:45.118Z,13.20
2023-05-06T23:49:12.942Z,14.20
2023-05-06T23:51:40.604Z,15.43
2023-05-06T23:54:08.278Z,14.27
2023-05-06T23:56:36.059Z,13.27
2023-05-06T23:59:03.969Z,14.53
